UAL1730 KLAX-KSAN
Flight info
| Callsign | UAL1730 |
|---|---|
| Flight time | 0h 27m |
| Altitude | 13000 |
| Route | LAXX1 MZB |
| Aircraft | A319/M-SDE3FGHIRWY/LB1 |
Departure
| Time | 2026-04-23 03:08 |
|---|---|
| Airport | Los Angeles International Airport (KLAX) |
Arrival
| Time | 2026-04-23 03:36 |
|---|---|
| Airport | San Diego International Airport (KSAN) |
| Time | Latitude | Longitude | Altitude | Speed | Heading |
|---|---|---|---|---|---|
| 2026-04-23 02:38 | 33.94201 | -118.40028 | 126 ft | 0 kts | 65° |
| 2026-04-23 02:53 | 33.94195 | -118.40045 | 123 ft | 3 kts | 76° |
| 2026-04-23 02:53 | 33.94193 | -118.40067 | 124 ft | 3 kts | 106° |
| 2026-04-23 02:53 | 33.94201 | -118.40085 | 122 ft | 3 kts | 147° |
| 2026-04-23 02:54 | 33.94219 | -118.40095 | 123 ft | 3 kts | 169° |
| 2026-04-23 02:54 | 33.94235 | -118.40098 | 124 ft | 1 kts | 173° |
| 2026-04-23 02:54 | 33.94236 | -118.40098 | 124 ft | 0 kts | 173° |
| 2026-04-23 02:57 | 33.94225 | -118.40097 | 124 ft | 1 kts | 173° |
| 2026-04-23 02:57 | 33.94219 | -118.40096 | 123 ft | 0 kts | 173° |
| 2026-04-23 02:58 | 33.94216 | -118.40096 | 122 ft | 2 kts | 173° |
| 2026-04-23 02:58 | 33.94178 | -118.40089 | 123 ft | 6 kts | 172° |
| 2026-04-23 02:58 | 33.94137 | -118.40084 | 124 ft | 5 kts | 174° |
| 2026-04-23 02:58 | 33.94103 | -118.40080 | 123 ft | 4 kts | 173° |
| 2026-04-23 02:59 | 33.94077 | -118.40075 | 124 ft | 3 kts | 171° |
| 2026-04-23 02:59 | 33.94059 | -118.40072 | 124 ft | 2 kts | 172° |
| 2026-04-23 02:59 | 33.94050 | -118.40070 | 124 ft | 1 kts | 173° |
| 2026-04-23 02:59 | 33.94048 | -118.40070 | 124 ft | 0 kts | 173° |
| 2026-04-23 03:00 | 33.94033 | -118.40068 | 129 ft | 7 kts | 173° |
| 2026-04-23 03:00 | 33.93952 | -118.40057 | 123 ft | 15 kts | 175° |
| 2026-04-23 03:01 | 33.93882 | -118.39979 | 125 ft | 14 kts | 96° |
| 2026-04-23 03:01 | 33.93892 | -118.39866 | 126 ft | 13 kts | 83° |
| 2026-04-23 03:01 | 33.93902 | -118.39765 | 126 ft | 11 kts | 82° |
| 2026-04-23 03:01 | 33.93911 | -118.39676 | 122 ft | 10 kts | 83° |
| 2026-04-23 03:02 | 33.93919 | -118.39597 | 126 ft | 9 kts | 83° |
| 2026-04-23 03:02 | 33.93926 | -118.39523 | 122 ft | 9 kts | 83° |
| 2026-04-23 03:02 | 33.93934 | -118.39451 | 126 ft | 9 kts | 83° |
| 2026-04-23 03:02 | 33.93943 | -118.39366 | 126 ft | 12 kts | 82° |
| 2026-04-23 03:03 | 33.93961 | -118.39200 | 126 ft | 31 kts | 83° |
| 2026-04-23 03:03 | 33.93991 | -118.38891 | 126 ft | 40 kts | 83° |
| 2026-04-23 03:03 | 33.94026 | -118.38556 | 126 ft | 36 kts | 83° |
| 2026-04-23 03:03 | 33.94045 | -118.38368 | 126 ft | 6 kts | 83° |
| 2026-04-23 03:04 | 33.94051 | -118.38302 | 126 ft | 10 kts | 83° |
| 2026-04-23 03:04 | 33.94062 | -118.38201 | 126 ft | 14 kts | 82° |
| 2026-04-23 03:04 | 33.94075 | -118.38079 | 126 ft | 16 kts | 82° |
| 2026-04-23 03:04 | 33.94079 | -118.38009 | 126 ft | 2 kts | 110° |
| 2026-04-23 03:05 | 33.94076 | -118.38008 | 126 ft | 0 kts | 136° |
| 2026-04-23 03:06 | 33.94073 | -118.38005 | 126 ft | 4 kts | 143° |
| 2026-04-23 03:06 | 33.94019 | -118.37995 | 123 ft | 10 kts | 178° |
| 2026-04-23 03:06 | 33.93982 | -118.38049 | 126 ft | 12 kts | 269° |
| 2026-04-23 03:07 | 33.93978 | -118.38094 | 126 ft | 0 kts | 262° |
| 2026-04-23 03:07 | 33.93977 | -118.38103 | 126 ft | 6 kts | 262° |
| 2026-04-23 03:07 | 33.93958 | -118.38267 | 126 ft | 33 kts | 262° |
| 2026-04-23 03:08 | 33.93907 | -118.38778 | 124 ft | 91 kts | 263° |
| 2026-04-23 03:08 | 33.93808 | -118.39745 | 124 ft | 140 kts | 263° |
| 2026-04-23 03:08 | 33.93689 | -118.40929 | 679 ft | 142 kts | 262° |
| 2026-04-23 03:08 | 33.93554 | -118.42107 | 1365 ft | 142 kts | 264° |
| 2026-04-23 03:09 | 33.93415 | -118.43296 | 1970 ft | 148 kts | 264° |
| 2026-04-23 03:09 | 33.93085 | -118.44567 | 2309 ft | 173 kts | 244° |
| 2026-04-23 03:09 | 33.92310 | -118.45830 | 2645 ft | 201 kts | 234° |
| 2026-04-23 03:09 | 33.91399 | -118.47241 | 3119 ft | 225 kts | 234° |
| 2026-04-23 03:10 | 33.90388 | -118.48814 | 3639 ft | 250 kts | 234° |
| 2026-04-23 03:10 | 33.89289 | -118.50521 | 4412 ft | 263 kts | 233° |
| 2026-04-23 03:10 | 33.88151 | -118.52282 | 5419 ft | 269 kts | 233° |
| 2026-04-23 03:10 | 33.86997 | -118.54067 | 6458 ft | 272 kts | 234° |
| 2026-04-23 03:11 | 33.85792 | -118.55835 | 7436 ft | 276 kts | 227° |
| 2026-04-23 03:11 | 33.84126 | -118.57038 | 8381 ft | 288 kts | 201° |
| 2026-04-23 03:11 | 33.82109 | -118.57310 | 9341 ft | 297 kts | 184° |
| 2026-04-23 03:11 | 33.80024 | -118.57198 | 10219 ft | 305 kts | 182° |
| 2026-04-23 03:12 | 33.77823 | -118.57028 | 10542 ft | 329 kts | 181° |
| 2026-04-23 03:12 | 33.75457 | -118.56795 | 10792 ft | 355 kts | 175° |
| 2026-04-23 03:12 | 33.73033 | -118.55740 | 10970 ft | 389 kts | 152° |
| 2026-04-23 03:12 | 33.70978 | -118.53472 | 11096 ft | 417 kts | 129° |
| 2026-04-23 03:13 | 33.69260 | -118.50566 | 11334 ft | 433 kts | 125° |
| 2026-04-23 03:13 | 33.67589 | -118.47518 | 11859 ft | 440 kts | 124° |
| 2026-04-23 03:13 | 33.65933 | -118.44394 | 12426 ft | 446 kts | 123° |
| 2026-04-23 03:13 | 33.64267 | -118.41229 | 12867 ft | 451 kts | 123° |
| 2026-04-23 03:14 | 33.62574 | -118.38054 | 12998 ft | 452 kts | 124° |
| 2026-04-23 03:14 | 33.60857 | -118.34892 | 13028 ft | 452 kts | 124° |
| 2026-04-23 03:14 | 33.59118 | -118.31747 | 13025 ft | 452 kts | 125° |
| 2026-04-23 03:14 | 33.57393 | -118.28655 | 13025 ft | 452 kts | 125° |
| 2026-04-23 03:15 | 33.55645 | -118.25526 | 13012 ft | 452 kts | 125° |
| 2026-04-23 03:15 | 33.53895 | -118.22394 | 13026 ft | 452 kts | 125° |
| 2026-04-23 03:15 | 33.52147 | -118.19259 | 13029 ft | 452 kts | 125° |
| 2026-04-23 03:15 | 33.50404 | -118.16121 | 13029 ft | 452 kts | 125° |
| 2026-04-23 03:16 | 33.48663 | -118.12981 | 13019 ft | 452 kts | 125° |
| 2026-04-23 03:16 | 33.46921 | -118.09843 | 13012 ft | 452 kts | 125° |
| 2026-04-23 03:16 | 33.43428 | -118.03573 | 13030 ft | 453 kts | 125° |
| 2026-04-23 03:17 | 33.41678 | -118.00441 | 13027 ft | 453 kts | 125° |
| 2026-04-23 03:17 | 33.39929 | -117.97309 | 13007 ft | 453 kts | 125° |
| 2026-04-23 03:17 | 33.38180 | -117.94177 | 13009 ft | 452 kts | 125° |
| 2026-04-23 03:17 | 33.36432 | -117.91049 | 13021 ft | 452 kts | 125° |
| 2026-04-23 03:18 | 33.34684 | -117.87918 | 13024 ft | 452 kts | 125° |
| 2026-04-23 03:18 | 33.32938 | -117.84789 | 13031 ft | 452 kts | 125° |
| 2026-04-23 03:18 | 33.31189 | -117.81659 | 13027 ft | 452 kts | 125° |
| 2026-04-23 03:18 | 33.29436 | -117.78535 | 13028 ft | 453 kts | 125° |
| 2026-04-23 03:19 | 33.27679 | -117.75414 | 13028 ft | 453 kts | 125° |
| 2026-04-23 03:19 | 33.25922 | -117.72293 | 13030 ft | 453 kts | 125° |
| 2026-04-23 03:19 | 33.24164 | -117.69173 | 13029 ft | 453 kts | 125° |
| 2026-04-23 03:19 | 33.22405 | -117.66053 | 13022 ft | 452 kts | 125° |
| 2026-04-23 03:20 | 33.20651 | -117.62940 | 13026 ft | 452 kts | 125° |
| 2026-04-23 03:20 | 33.18896 | -117.59826 | 13030 ft | 452 kts | 125° |
| 2026-04-23 03:20 | 33.17141 | -117.56719 | 13029 ft | 451 kts | 125° |
| 2026-04-23 03:20 | 33.15387 | -117.53613 | 13029 ft | 451 kts | 125° |
| 2026-04-23 03:21 | 33.13631 | -117.50508 | 13028 ft | 451 kts | 125° |
| 2026-04-23 03:21 | 33.11875 | -117.47407 | 13031 ft | 451 kts | 125° |
| 2026-04-23 03:21 | 33.10119 | -117.44306 | 13029 ft | 451 kts | 125° |
| 2026-04-23 03:21 | 33.08360 | -117.41208 | 13027 ft | 451 kts | 125° |
| 2026-04-23 03:22 | 33.06596 | -117.38112 | 13024 ft | 451 kts | 126° |
| 2026-04-23 03:22 | 33.04579 | -117.35273 | 12908 ft | 444 kts | 138° |
| 2026-04-23 03:22 | 33.02212 | -117.33054 | 12661 ft | 422 kts | 150° |
| 2026-04-23 03:22 | 32.99672 | -117.31520 | 12533 ft | 397 kts | 162° |
| 2026-04-23 03:23 | 32.97139 | -117.30455 | 12408 ft | 376 kts | 165° |
| 2026-04-23 03:23 | 32.94726 | -117.29446 | 12287 ft | 360 kts | 165° |
| 2026-04-23 03:23 | 32.92417 | -117.28471 | 12159 ft | 345 kts | 165° |
| 2026-04-23 03:23 | 32.90195 | -117.27489 | 11764 ft | 342 kts | 159° |
| 2026-04-23 03:24 | 32.88266 | -117.25768 | 11292 ft | 349 kts | 132° |
| 2026-04-23 03:24 | 32.87075 | -117.23344 | 11100 ft | 333 kts | 108° |
| 2026-04-23 03:24 | 32.86503 | -117.20712 | 10628 ft | 326 kts | 102° |
| 2026-04-23 03:24 | 32.86043 | -117.18094 | 10124 ft | 322 kts | 101° |
| 2026-04-23 03:25 | 32.85603 | -117.15500 | 9557 ft | 319 kts | 101° |
| 2026-04-23 03:25 | 32.85173 | -117.12929 | 9005 ft | 315 kts | 101° |
| 2026-04-23 03:25 | 32.84749 | -117.10392 | 8466 ft | 311 kts | 101° |
| 2026-04-23 03:25 | 32.84326 | -117.07890 | 7950 ft | 307 kts | 101° |
| 2026-04-23 03:26 | 32.83903 | -117.05423 | 7449 ft | 302 kts | 101° |
| 2026-04-23 03:26 | 32.83484 | -117.02987 | 6938 ft | 299 kts | 101° |
| 2026-04-23 03:26 | 32.83069 | -117.00586 | 6448 ft | 294 kts | 101° |
| 2026-04-23 03:26 | 32.82659 | -116.98216 | 6191 ft | 288 kts | 101° |
| 2026-04-23 03:27 | 32.82262 | -116.95929 | 6053 ft | 275 kts | 101° |
| 2026-04-23 03:27 | 32.81891 | -116.93785 | 6036 ft | 255 kts | 101° |
| 2026-04-23 03:27 | 32.81544 | -116.91782 | 6035 ft | 248 kts | 101° |
| 2026-04-23 03:27 | 32.81196 | -116.89777 | 6037 ft | 247 kts | 101° |
| 2026-04-23 03:28 | 32.80809 | -116.87789 | 6035 ft | 248 kts | 110° |
| 2026-04-23 03:28 | 32.79838 | -116.86143 | 6041 ft | 245 kts | 144° |
| 2026-04-23 03:28 | 32.78320 | -116.85346 | 6035 ft | 238 kts | 178° |
| 2026-04-23 03:28 | 32.76685 | -116.85356 | 5894 ft | 233 kts | 189° |
| 2026-04-23 03:29 | 32.75072 | -116.85540 | 5594 ft | 233 kts | 191° |
| 2026-04-23 03:29 | 32.73467 | -116.85759 | 5300 ft | 231 kts | 190° |
| 2026-04-23 03:29 | 32.71872 | -116.85994 | 5059 ft | 230 kts | 190° |
| 2026-04-23 03:29 | 32.70317 | -116.86379 | 4941 ft | 226 kts | 208° |
| 2026-04-23 03:30 | 32.69152 | -116.87536 | 4609 ft | 217 kts | 240° |
| 2026-04-23 03:30 | 32.68480 | -116.89136 | 4281 ft | 217 kts | 249° |
| 2026-04-23 03:30 | 32.67897 | -116.90787 | 4006 ft | 217 kts | 250° |
| 2026-04-23 03:30 | 32.67324 | -116.92442 | 3719 ft | 217 kts | 251° |
| 2026-04-23 03:31 | 32.67000 | -116.94156 | 3395 ft | 212 kts | 274° |
| 2026-04-23 03:31 | 32.67346 | -116.95831 | 3060 ft | 210 kts | 294° |
| 2026-04-23 03:31 | 32.67864 | -116.97445 | 2836 ft | 209 kts | 293° |
| 2026-04-23 03:31 | 32.68376 | -116.99059 | 2804 ft | 209 kts | 292° |
| 2026-04-23 03:32 | 32.68891 | -117.00686 | 2803 ft | 211 kts | 291° |
| 2026-04-23 03:32 | 32.69356 | -117.02340 | 2800 ft | 211 kts | 288° |
| 2026-04-23 03:32 | 32.69766 | -117.04009 | 2786 ft | 211 kts | 287° |
| 2026-04-23 03:32 | 32.70166 | -117.05688 | 2479 ft | 211 kts | 287° |
| 2026-04-23 03:33 | 32.70562 | -117.07343 | 2162 ft | 203 kts | 287° |
| 2026-04-23 03:33 | 32.70938 | -117.08914 | 1875 ft | 193 kts | 287° |
| 2026-04-23 03:33 | 32.71291 | -117.10395 | 1607 ft | 180 kts | 287° |
| 2026-04-23 03:33 | 32.71626 | -117.11794 | 1291 ft | 172 kts | 287° |
| 2026-04-23 03:34 | 32.71939 | -117.13101 | 1029 ft | 157 kts | 287° |
| 2026-04-23 03:34 | 32.72228 | -117.14304 | 801 ft | 147 kts | 287° |
| 2026-04-23 03:34 | 32.72494 | -117.15424 | 585 ft | 137 kts | 287° |
| 2026-04-23 03:34 | 32.72758 | -117.16497 | 404 ft | 135 kts | 288° |
| 2026-04-23 03:35 | 32.73023 | -117.17593 | 126 ft | 140 kts | 287° |
| 2026-04-23 03:35 | 32.73202 | -117.18325 | 27 ft | 136 kts | 288° |
| 2026-04-23 03:35 | 32.73432 | -117.19274 | 20 ft | 99 kts | 285° |
| 2026-04-23 03:35 | 32.73578 | -117.19870 | 29 ft | 58 kts | 286° |
| 2026-04-23 03:36 | 32.73655 | -117.20194 | 24 ft | 38 kts | 285° |
| 2026-04-23 03:36 | 32.73662 | -117.20408 | 18 ft | 22 kts | 209° |
| 2026-04-23 03:36 | 32.73582 | -117.20316 | 21 ft | 19 kts | 105° |
| 2026-04-23 03:36 | 32.73542 | -117.20155 | 24 ft | 24 kts | 106° |
| 2026-04-23 03:37 | 32.73488 | -117.19933 | 24 ft | 30 kts | 106° |
| 2026-04-23 03:37 | 32.73429 | -117.19688 | 25 ft | 32 kts | 106° |
| 2026-04-23 03:37 | 32.73379 | -117.19584 | 23 ft | 11 kts | 182° |
| 2026-04-23 03:37 | 32.73323 | -117.19606 | 20 ft | 0 kts | 195° |